Time,TemperatureF,DewpointF,PressureIn,WindDirection,WindDirectionDegrees,WindSpeedMPH,WindSpeedGustMPH,Humidity,HourlyPrecipIn,Conditions,Clouds,dailyrainin,SoftwareType,DateUTC
2013-04-17 00:03:00,56.0,54.0,30.21,North,0,0.0,3.0,94,0.16,,,0.41,,2013-04-17 04:03:00,
2013-04-17 00:13:00,56.0,54.0,30.21,North,0,0.0,3.0,94,0.16,,,0.41,,2013-04-17 04:13:00,
2013-04-17 00:22:00,56.0,54.0,30.21,North,0,0.0,3.0,94,0.16,,,0.41,,2013-04-17 04:22:00,
2013-04-17 00:33:00,56.0,54.0,30.21,North,0,0.0,3.0,94,0.16,,,0.41,,2013-04-17 04:33:00,
2013-04-17 01:32:00,55.0,54.0,30.17,North,0,0.0,1.0,96,0.00,,,0.42,,2013-04-17 05:32:00,
2013-04-17 01:43:00,55.0,54.0,30.17,North,0,0.0,1.0,96,0.00,,,0.42,,2013-04-17 05:43:00,
2013-04-17 01:52:00,55.0,54.0,30.17,North,0,0.0,1.0,96,0.00,,,0.42,,2013-04-17 05:52:00,
2013-04-17 02:02:00,55.0,54.0,30.17,North,0,0.0,1.0,96,0.00,,,0.42,,2013-04-17 06:02:00,
2013-04-17 02:12:00,55.0,54.0,30.17,North,0,0.0,1.0,96,0.00,,,0.42,,2013-04-17 06:12:00,
2013-04-17 02:32:00,55.0,54.0,30.16,North,0,0.0,3.0,97,0.00,,,0.42,,2013-04-17 06:32:00,
2013-04-17 02:42:00,55.0,54.0,30.16,North,0,0.0,3.0,97,0.00,,,0.42,,2013-04-17 06:42:00,
2013-04-17 02:52:00,55.0,54.0,30.16,North,0,0.0,3.0,97,0.00,,,0.42,,2013-04-17 06:52:00,
2013-04-17 03:02:00,55.0,54.0,30.16,North,0,0.0,1.0,97,0.00,,,0.42,,2013-04-17 07:02:00,
2013-04-17 03:12:00,55.0,54.0,30.16,North,0,0.0,1.0,97,0.00,,,0.42,,2013-04-17 07:12:00,
2013-04-17 03:22:00,54.0,53.0,30.16,North,0,0.0,1.0,97,0.00,,,0.42,,2013-04-17 07:22:00,
2013-04-17 03:32:00,54.0,53.0,30.16,North,0,0.0,1.0,97,0.00,,,0.42,,2013-04-17 07:32:00,
2013-04-17 03:42:00,54.0,53.0,30.16,North,0,0.0,1.0,97,0.00,,,0.42,,2013-04-17 07:42:00,
2013-04-17 03:52:00,54.0,53.0,30.16,North,0,0.0,1.0,97,0.00,,,0.42,,2013-04-17 07:52:00,
2013-04-17 04:02:00,53.0,52.0,30.16,North,0,0.0,0.0,97,0.00,,,0.42,,2013-04-17 08:02:00,
2013-04-17 04:12:00,53.0,52.0,30.16,North,0,0.0,0.0,97,0.00,,,0.42,,2013-04-17 08:12:00,
2013-04-17 04:22:00,53.0,52.0,30.16,North,0,0.0,0.0,97,0.00,,,0.42,,2013-04-17 08:22:00,
2013-04-17 04:32:00,53.0,52.0,30.17,North,0,0.0,2.0,98,0.00,,,0.42,,2013-04-17 08:32:00,
2013-04-17 04:42:00,53.0,52.0,30.17,North,0,0.0,2.0,98,0.00,,,0.42,,2013-04-17 08:42:00,
2013-04-17 04:52:00,53.0,52.0,30.17,North,0,0.0,3.0,98,0.00,,,0.42,,2013-04-17 08:52:00,
2013-04-17 05:02:00,53.0,52.0,30.18,WSW,252,2.0,5.0,98,0.00,,,0.42,,2013-04-17 09:02:00,
2013-04-17 05:12:00,53.0,52.0,30.18,WSW,252,2.0,5.0,98,0.00,,,0.42,,2013-04-17 09:12:00,
2013-04-17 05:22:00,54.0,53.0,30.18,SW,234,2.0,6.0,98,0.00,,,0.42,,2013-04-17 09:22:00,
2013-04-17 05:33:00,54.0,53.0,30.18,SW,234,2.0,6.0,98,0.00,,,0.42,,2013-04-17 09:33:00,
2013-04-17 05:42:00,54.0,53.0,30.18,SW,234,2.0,6.0,98,0.00,,,0.42,,2013-04-17 09:42:00,
2013-04-17 05:53:00,54.0,53.0,30.18,SW,234,2.0,6.0,98,0.00,,,0.42,,2013-04-17 09:53:00,
2013-04-17 06:03:00,54.0,53.0,30.18,SW,234,2.0,6.0,98,0.00,,,0.42,,2013-04-17 10:03:00,
2013-04-17 06:23:00,54.0,53.0,30.19,North,0,0.0,3.0,98,0.00,,,0.42,,2013-04-17 10:23:00,
2013-04-17 06:33:00,54.0,53.0,30.19,North,0,0.0,3.0,98,0.00,,,0.42,,2013-04-17 10:33:00,
2013-04-17 06:43:00,54.0,53.0,30.19,North,0,0.0,3.0,98,0.00,,,0.42,,2013-04-17 10:43:00,
2013-04-17 06:53:00,54.0,53.0,30.19,North,0,0.0,3.0,98,0.00,,,0.42,,2013-04-17 10:53:00,
2013-04-17 07:02:00,54.0,53.0,30.20,North,0,0.0,5.0,98,0.01,,,0.43,,2013-04-17 11:02:00,
2013-04-17 07:12:00,54.0,53.0,30.20,North,0,0.0,5.0,98,0.01,,,0.43,,2013-04-17 11:12:00,
2013-04-17 07:22:00,55.0,54.0,30.20,WSW,249,1.0,4.0,98,0.01,,,0.43,,2013-04-17 11:22:00,
2013-04-17 07:32:00,55.0,54.0,30.20,North,0,0.0,3.0,98,0.00,,,0.43,,2013-04-17 11:32:00,
2013-04-17 07:42:00,55.0,54.0,30.20,North,0,0.0,3.0,98,0.00,,,0.43,,2013-04-17 11:42:00,
2013-04-17 07:52:00,55.0,54.0,30.20,North,0,0.0,3.0,98,0.00,,,0.43,,2013-04-17 11:52:00,
2013-04-17 08:02:00,55.0,54.0,30.22,North,0,0.0,2.0,98,0.00,,,0.43,,2013-04-17 12:02:00,
2013-04-17 08:12:00,55.0,54.0,30.22,North,0,0.0,2.0,98,0.00,,,0.43,,2013-04-17 12:12:00,
2013-04-17 08:22:00,55.0,54.0,30.22,North,0,0.0,2.0,98,0.00,,,0.43,,2013-04-17 12:22:00,
2013-04-17 08:32:00,55.0,54.0,30.22,North,0,0.0,2.0,98,0.00,,,0.43,,2013-04-17 12:32:00,
2013-04-17 08:42:00,55.0,54.0,30.22,North,0,0.0,2.0,98,0.00,,,0.43,,2013-04-17 12:42:00,
2013-04-17 08:52:00,55.0,54.0,30.23,NNW,338,1.0,3.0,98,0.00,,,0.43,,2013-04-17 12:52:00,
2013-04-17 09:02:00,55.0,54.0,30.23,NNW,332,1.0,4.0,98,0.00,,,0.43,,2013-04-17 13:02:00,
2013-04-17 09:12:00,55.0,54.0,30.23,NNW,332,1.0,4.0,98,0.00,,,0.43,,2013-04-17 13:12:00,
2013-04-17 09:22:00,55.0,54.0,30.22,NNW,329,2.0,4.0,98,0.00,,,0.43,,2013-04-17 13:22:00,
2013-04-17 09:32:00,55.0,54.0,30.23,North,0,0.0,4.0,98,0.00,,,0.43,,2013-04-17 13:32:00,
2013-04-17 09:42:00,55.0,54.0,30.23,North,0,0.0,4.0,98,0.00,,,0.43,,2013-04-17 13:42:00,
2013-04-17 09:52:00,55.0,54.0,30.23,North,0,0.0,4.0,98,0.00,,,0.43,,2013-04-17 13:52:00,
2013-04-17 10:02:00,55.0,54.0,30.23,North,0,0.0,2.0,98,0.00,,,0.43,,2013-04-17 14:02:00,
2013-04-17 10:12:00,55.0,54.0,30.23,North,0,0.0,2.0,98,0.00,,,0.43,,2013-04-17 14:12:00,
2013-04-17 10:22:00,55.0,54.0,30.24,West,271,1.0,3.0,98,0.00,,,0.43,,2013-04-17 14:22:00,
2013-04-17 10:32:00,56.0,55.0,30.24,West,265,1.0,3.0,98,0.00,,,0.43,,2013-04-17 14:32:00,
2013-04-17 10:42:00,56.0,55.0,30.24,SW,225,1.0,3.0,98,0.00,,,0.43,,2013-04-17 14:42:00,
2013-04-17 10:52:00,56.0,55.0,30.24,SW,225,1.0,3.0,98,0.00,,,0.43,,2013-04-17 14:52:00,
2013-04-17 11:02:00,57.0,56.0,30.24,North,0,0.0,3.0,96,0.00,,,0.43,,2013-04-17 15:02:00,
2013-04-17 11:12:00,57.0,56.0,30.24,North,0,0.0,3.0,96,0.00,,,0.43,,2013-04-17 15:12:00,
2013-04-17 11:22:00,57.0,56.0,30.24,North,0,0.0,3.0,96,0.00,,,0.43,,2013-04-17 15:22:00,
2013-04-17 11:33:00,56.0,55.0,30.24,NNW,332,2.0,4.0,95,0.00,,,0.43,,2013-04-17 15:33:00,
2013-04-17 11:43:00,56.0,55.0,30.24,NNW,332,2.0,4.0,95,0.00,,,0.43,,2013-04-17 15:43:00,
2013-04-17 11:53:00,56.0,54.0,30.24,NNW,338,3.0,7.0,94,0.00,,,0.43,,2013-04-17 15:53:00,
2013-04-17 12:03:00,57.0,55.0,30.24,NNW,337,2.0,4.0,94,0.00,,,0.43,,2013-04-17 16:03:00,
2013-04-17 12:12:00,57.0,55.0,30.25,WNW,286,1.0,3.0,94,0.00,,,0.43,,2013-04-17 16:12:00,
2013-04-17 12:23:00,57.0,55.0,30.25,WNW,286,1.0,3.0,94,0.00,,,0.43,,2013-04-17 16:23:00,
2013-04-17 12:32:00,57.0,55.0,30.24,WSW,244,1.0,3.0,92,0.00,,,0.43,,2013-04-17 16:32:00,
2013-04-17 12:42:00,57.0,55.0,30.24,WSW,244,1.0,3.0,92,0.00,,,0.43,,2013-04-17 16:42:00,
2013-04-17 12:52:00,57.0,55.0,30.24,WSW,244,1.0,3.0,92,0.00,,,0.43,,2013-04-17 16:52:00,
2013-04-17 13:02:00,58.0,55.0,30.24,WSW,238,3.0,7.0,90,0.00,,,0.43,,2013-04-17 17:02:00,
2013-04-17 13:12:00,58.0,55.0,30.24,WSW,238,3.0,7.0,90,0.00,,,0.43,,2013-04-17 17:12:00,
2013-04-17 13:22:00,60.0,56.0,30.24,West,261,4.0,7.0,88,0.00,,,0.43,,2013-04-17 17:22:00,
2013-04-17 13:33:00,60.0,56.0,30.23,WSW,252,1.0,7.0,87,0.00,,,0.43,,2013-04-17 17:33:00,
2013-04-17 13:42:00,60.0,56.0,30.23,WSW,252,1.0,7.0,87,0.00,,,0.43,,2013-04-17 17:42:00,
2013-04-17 13:52:00,60.0,56.0,30.23,NW,308,3.0,8.0,87,0.00,,,0.43,,2013-04-17 17:52:00,
2013-04-17 14:02:00,60.0,57.0,30.22,West,268,1.0,5.0,89,0.00,,,0.43,,2013-04-17 18:02:00,
2013-04-17 14:12:00,60.0,57.0,30.22,West,268,1.0,5.0,89,0.00,,,0.43,,2013-04-17 18:12:00,
2013-04-17 14:22:00,60.0,56.0,30.22,NW,311,2.0,5.0,87,0.00,,,0.43,,2013-04-17 18:22:00,
2013-04-17 14:32:00,63.0,58.0,30.22,WSW,244,1.0,7.0,83,0.00,,,0.43,,2013-04-17 18:32:00,
2013-04-17 14:42:00,63.0,58.0,30.22,WSW,244,1.0,7.0,83,0.00,,,0.43,,2013-04-17 18:42:00,
2013-04-17 14:52:00,63.0,58.0,30.22,WSW,244,1.0,7.0,83,0.00,,,0.43,,2013-04-17 18:52:00,
2013-04-17 15:02:00,62.0,56.0,30.22,WSW,244,2.0,7.0,82,0.00,,,0.43,,2013-04-17 19:02:00,
2013-04-17 15:12:00,62.0,56.0,30.22,WSW,244,2.0,7.0,82,0.00,,,0.43,,2013-04-17 19:12:00,
2013-04-17 15:22:00,63.0,58.0,30.21,North,0,0.0,4.0,83,0.00,,,0.43,,2013-04-17 19:22:00,
2013-04-17 15:32:00,62.0,57.0,30.21,NNE,17,2.0,6.0,83,0.00,,,0.43,,2013-04-17 19:32:00,
2013-04-17 15:42:00,62.0,57.0,30.20,North,5,2.0,5.0,84,0.00,,,0.43,,2013-04-17 19:42:00,
2013-04-17 15:52:00,62.0,57.0,30.20,North,5,2.0,5.0,84,0.00,,,0.43,,2013-04-17 19:52:00,
2013-04-17 16:02:00,61.0,56.0,30.20,North,7,3.0,6.0,85,0.00,,,0.43,,2013-04-17 20:02:00,
2013-04-17 16:12:00,61.0,56.0,30.20,North,7,3.0,6.0,85,0.00,,,0.43,,2013-04-17 20:12:00,
2013-04-17 16:22:00,62.0,57.0,30.20,NNE,25,4.0,8.0,85,0.00,,,0.43,,2013-04-17 20:22:00,
2013-04-17 16:32:00,62.0,57.0,30.20,NNE,28,2.0,9.0,85,0.00,,,0.43,,2013-04-17 20:32:00,
2013-04-17 16:33:00,61.0,57.0,30.20,North,354,3.0,8.0,86,0.00,,,0.43,,2013-04-17 20:33:00,
2013-04-17 16:42:00,62.0,57.0,30.20,NNE,28,2.0,9.0,85,0.00,,,0.43,,2013-04-17 20:42:00,
2013-04-17 16:52:00,61.0,57.0,30.20,North,354,3.0,8.0,86,0.00,,,0.43,,2013-04-17 20:52:00,
2013-04-17 17:03:00,61.0,57.0,30.20,North,354,3.0,8.0,86,0.00,,,0.43,,2013-04-17 21:03:00,
2013-04-17 17:12:00,61.0,57.0,30.20,North,354,3.0,8.0,86,0.00,,,0.43,,2013-04-17 21:12:00,
2013-04-17 17:22:00,61.0,57.0,30.20,North,354,3.0,8.0,86,0.00,,,0.43,,2013-04-17 21:22:00,
2013-04-17 17:43:00,60.0,56.0,30.21,NNW,339,4.0,8.0,86,0.00,,,0.43,,2013-04-17 21:43:00,
2013-04-17 17:53:00,60.0,56.0,30.21,NNW,339,4.0,8.0,86,0.00,,,0.43,,2013-04-17 21:53:00,
2013-04-17 18:02:00,60.0,55.0,30.20,NNW,343,2.0,7.0,85,0.00,,,0.43,,2013-04-17 22:02:00,
2013-04-17 18:13:00,60.0,55.0,30.20,NNW,343,2.0,7.0,85,0.00,,,0.43,,2013-04-17 22:13:00,
2013-04-17 18:22:00,60.0,55.0,30.21,NNE,17,1.0,5.0,85,0.00,,,0.43,,2013-04-17 22:22:00,
2013-04-17 18:33:00,60.0,55.0,30.21,NNE,17,1.0,5.0,85,0.00,,,0.43,,2013-04-17 22:33:00,
2013-04-17 18:42:00,60.0,55.0,30.21,North,0,0.0,5.0,84,0.00,,,0.43,,2013-04-17 22:42:00,
2013-04-17 18:53:00,60.0,55.0,30.21,North,0,0.0,5.0,84,0.00,,,0.43,,2013-04-17 22:53:00,
2013-04-17 19:02:00,60.0,55.0,30.21,East,87,1.0,3.0,84,0.00,,,0.43,,2013-04-17 23:02:00,
2013-04-17 19:12:00,60.0,55.0,30.21,East,83,1.0,3.0,84,0.00,,,0.43,,2013-04-17 23:12:00,
2013-04-17 19:22:00,60.0,55.0,30.21,East,83,1.0,3.0,84,0.00,,,0.43,,2013-04-17 23:22:00,
2013-04-17 19:32:00,59.0,54.0,30.20,ENE,61,2.0,6.0,85,0.00,,,0.43,,2013-04-17 23:32:00,
2013-04-17 19:42:00,59.0,54.0,30.20,ENE,61,2.0,6.0,85,0.00,,,0.43,,2013-04-17 23:42:00,
2013-04-17 19:52:00,59.0,54.0,30.20,ENE,61,2.0,6.0,85,0.00,,,0.43,,2013-04-17 23:52:00,
2013-04-17 20:02:00,59.0,55.0,30.20,East,95,2.0,5.0,87,0.00,,,0.43,,2013-04-18 00:02:00,
2013-04-17 20:12:00,58.0,54.0,30.21,ESE,105,2.0,8.0,87,0.00,,,0.43,,2013-04-18 00:12:00,
2013-04-17 20:22:00,58.0,54.0,30.21,ESE,105,2.0,8.0,87,0.00,,,0.43,,2013-04-18 00:22:00,
2013-04-17 20:32:00,58.0,54.0,30.21,ESE,105,2.0,8.0,87,0.00,,,0.43,,2013-04-18 00:32:00,
2013-04-17 20:42:00,58.0,54.0,30.21,East,90,3.0,5.0,87,0.00,,,0.43,,2013-04-18 00:42:00,
2013-04-17 20:52:00,58.0,54.0,30.21,East,90,3.0,5.0,87,0.00,,,0.43,,2013-04-18 00:52:00,
2013-04-17 21:02:00,58.0,54.0,30.21,East,90,3.0,5.0,87,0.00,,,0.43,,2013-04-18 01:02:00,
2013-04-17 21:12:00,58.0,54.0,30.21,East,90,3.0,5.0,87,0.00,,,0.43,,2013-04-18 01:12:00,
2013-04-17 21:22:00,58.0,54.0,30.21,East,90,3.0,5.0,87,0.00,,,0.43,,2013-04-18 01:22:00,
2013-04-17 21:32:00,58.0,54.0,30.20,ESE,102,2.0,5.0,86,0.00,,,0.43,,2013-04-18 01:32:00,
2013-04-17 21:42:00,58.0,54.0,30.20,ESE,102,2.0,5.0,86,0.00,,,0.43,,2013-04-18 01:42:00,
2013-04-17 21:52:00,58.0,54.0,30.20,ESE,102,2.0,5.0,86,0.00,,,0.43,,2013-04-18 01:52:00,
2013-04-17 22:02:00,58.0,54.0,30.21,ESE,120,3.0,8.0,86,0.00,,,0.39,,2013-04-18 02:02:00,
2013-04-17 22:12:00,58.0,54.0,30.21,ESE,120,3.0,8.0,86,0.00,,,0.39,,2013-04-18 02:12:00,
2013-04-17 22:22:00,58.0,54.0,30.21,ESE,120,3.0,8.0,86,0.00,,,0.39,,2013-04-18 02:22:00,
2013-04-17 22:32:00,58.0,54.0,30.21,ESE,120,3.0,8.0,86,0.00,,,0.39,,2013-04-18 02:32:00,
2013-04-17 23:02:00,58.0,54.0,30.22,East,96,3.0,10.0,86,0.00,,,0.19,,2013-04-18 03:02:00,
2013-04-17 23:12:00,58.0,54.0,30.21,ESE,103,5.0,10.0,86,0.00,,,0.13,,2013-04-18 03:12:00,
2013-04-17 23:22:00,58.0,54.0,30.21,ESE,103,5.0,10.0,86,0.00,,,0.13,,2013-04-18 03:22:00,
2013-04-17 23:33:00,57.0,53.0,30.20,ESE,112,3.0,8.0,85,0.00,,,0.05,,2013-04-18 03:33:00,
2013-04-17 23:43:00,57.0,53.0,30.19,ESE,113,5.0,9.0,85,0.00,,,0.02,,2013-04-18 03:43:00,
2013-04-17 23:53:00,57.0,53.0,30.19,ESE,113,5.0,9.0,85,0.00,,,0.02,,2013-04-18 03:53:00,